Time;durP1;ratioP1;P1;durP2;ratioP2;P2;SDS_P1;SDS_P2;PMS_P1;PMS_P2;Temp;Humidity;BMP_temperature;BMP_pressure;BME280_temperature;BME280_humidity;BME280_pressure;Samples;Min_cycle;Max_cycle;Signal;HPM_P1;HPM_P2
2021/05/05 00:00:27;;;;;;;1.85;0.50;;;;;;;;;;2089665;28;20029;-67
2021/05/05 00:01:27;;;;;;;1.13;0.60;;;;;;;;;;2089070;28;20515;-67
2021/05/05 00:02:28;;;;;;;1.70;0.63;;;;;;;;;;2089764;28;20032;-67
2021/05/05 00:03:28;;;;;;;0.75;0.43;;;;;;;;;;2089723;28;20040;-67
2021/05/05 00:04:28;;;;;;;1.05;0.60;;;;;;;;;;2089445;28;20063;-67
2021/05/05 00:05:29;;;;;;;1.30;0.80;;;;;;;;;;2089716;28;20025;-68
2021/05/05 00:06:29;;;;;;;0.35;0.30;;;;;;;;;;2089734;28;20499;-67
2021/05/05 00:07:29;;;;;;;1.10;0.60;;;;;;;;;;2089682;28;20476;-67
2021/05/05 00:08:30;;;;;;;1.00;0.60;;;;;;;;;;2089301;28;20124;-67
2021/05/05 00:09:30;;;;;;;2.13;0.60;;;;;;;;;;2088930;28;20037;-67
2021/05/05 00:10:30;;;;;;;1.17;0.55;;;;;;;;;;2088889;28;20144;-67
2021/05/05 00:11:31;;;;;;;1.33;0.50;;;;;;;;;;2089044;28;20103;-65
2021/05/05 00:12:31;;;;;;;1.80;0.63;;;;;;;;;;2089633;28;20488;-66
2021/05/05 00:13:31;;;;;;;0.90;0.50;;;;;;;;;;2089643;28;20504;-66
2021/05/05 00:14:32;;;;;;;1.65;0.60;;;;;;;;;;2089683;28;20075;-66
2021/05/05 00:15:32;;;;;;;1.77;0.70;;;;;;;;;;2089486;28;20479;-65
2021/05/05 00:16:32;;;;;;;1.05;0.40;;;;;;;;;;2089562;28;20048;-65
2021/05/05 00:17:33;;;;;;;1.02;0.50;;;;;;;;;;2089562;28;20476;-65
2021/05/05 00:18:33;;;;;;;1.17;0.60;;;;;;;;;;2089625;28;20122;-65
2021/05/05 00:19:34;;;;;;;2.03;0.63;;;;;;;;;;2089479;28;20071;-65
2021/05/05 00:20:35;;;;;;;1.67;0.77;;;;;;;;;;2089576;28;20031;-66
2021/05/05 00:21:35;;;;;;;0.90;0.50;;;;;;;;;;2089520;28;20055;-65
2021/05/05 00:22:35;;;;;;;0.40;0.30;;;;;;;;;;2089569;28;20040;-65
2021/05/05 00:23:36;;;;;;;0.93;0.40;;;;;;;;;;2088571;28;20052;-65
2021/05/05 00:24:36;;;;;;;1.20;0.60;;;;;;;;;;2088971;28;20037;-65
2021/05/05 00:25:36;;;;;;;1.02;0.60;;;;;;;;;;2089501;28;20024;-65
2021/05/05 00:26:37;;;;;;;1.20;0.60;;;;;;;;;;2089536;28;20052;-65
2021/05/05 00:27:37;;;;;;;1.23;0.57;;;;;;;;;;2089473;28;20037;-65
2021/05/05 00:28:38;;;;;;;0.85;0.50;;;;;;;;;;2097137;28;20028;-64
2021/05/05 00:29:38;;;;;;;0.50;0.43;;;;;;;;;;2097057;28;20039;-65
2021/05/05 00:30:38;;;;;;;1.10;0.57;;;;;;;;;;2089349;28;20102;-65
2021/05/05 00:31:39;;;;;;;1.23;0.60;;;;;;;;;;2089434;28;20056;-65
2021/05/05 00:32:39;;;;;;;0.75;0.38;;;;;;;;;;2089530;28;20435;-65
2021/05/05 00:33:40;;;;;;;1.58;0.50;;;;;;;;;;2089460;28;20029;-65
2021/05/05 00:34:40;;;;;;;0.88;0.50;;;;;;;;;;2089340;28;20051;-65
2021/05/05 00:35:40;;;;;;;0.80;0.40;;;;;;;;;;2089266;28;20120;-65
2021/05/05 00:36:41;;;;;;;0.55;0.50;;;;;;;;;;2088848;28;20037;-65
2021/05/05 00:37:42;;;;;;;0.70;0.40;;;;;;;;;;2088611;28;20121;-65
2021/05/05 00:38:44;;;;;;;0.80;0.50;;;;;;;;;;2089159;28;20045;-65
2021/05/05 00:39:44;;;;;;;0.95;0.60;;;;;;;;;;2089340;28;20065;-65
2021/05/05 00:40:45;;;;;;;0.88;0.50;;;;;;;;;;2089318;28;20442;-65
2021/05/05 00:41:45;;;;;;;1.50;0.50;;;;;;;;;;2089339;28;20061;-65
2021/05/05 00:42:45;;;;;;;1.23;0.40;;;;;;;;;;2089513;28;20045;-65
2021/05/05 00:43:46;;;;;;;0.40;0.40;;;;;;;;;;2089379;28;20029;-65
2021/05/05 00:44:46;;;;;;;0.40;0.40;;;;;;;;;;2089430;28;20033;-65
2021/05/05 00:45:46;;;;;;;1.05;0.52;;;;;;;;;;2088370;28;20589;-65
2021/05/05 00:46:47;;;;;;;1.15;0.70;;;;;;;;;;2088883;28;20025;-65
2021/05/05 00:47:47;;;;;;;0.70;0.40;;;;;;;;;;2088597;28;20016;-65
2021/05/05 00:48:47;;;;;;;1.23;0.40;;;;;;;;;;2088683;28;20419;-65
2021/05/05 00:49:48;;;;;;;0.85;0.52;;;;;;;;;;2089139;28;20025;-65
2021/05/05 00:50:48;;;;;;;0.60;0.40;;;;;;;;;;2089455;28;20060;-65
2021/05/05 00:51:48;;;;;;;1.05;0.40;;;;;;;;;;2089328;28;20123;-65
2021/05/05 00:52:49;;;;;;;0.75;0.52;;;;;;;;;;2089158;28;20070;-65
2021/05/05 00:53:49;;;;;;;0.82;0.47;;;;;;;;;;2089222;28;20110;-65
2021/05/05 00:54:50;;;;;;;0.75;0.50;;;;;;;;;;2089371;28;20611;-65
2021/05/05 00:55:51;;;;;;;0.70;0.40;;;;;;;;;;2096922;28;20115;-65
2021/05/05 00:56:51;;;;;;;1.38;0.50;;;;;;;;;;2097021;28;20542;-65
2021/05/05 00:57:52;;;;;;;1.30;0.75;;;;;;;;;;2089312;28;20033;-64
2021/05/05 00:58:52;;;;;;;0.52;0.40;;;;;;;;;;2089250;28;20104;-65
2021/05/05 00:59:54;;;;;;;0.50;0.50;;;;;;;;;;2096827;28;20483;-65
2021/05/05 01:00:55;;;;;;;1.13;0.32;;;;;;;;;;2088429;28;20045;-65
2021/05/05 01:01:56;;;;;;;0.57;0.45;;;;;;;;;;2088755;28;20032;-66
2021/05/05 01:02:56;;;;;;;2.00;0.47;;;;;;;;;;2096873;28;20510;-66
2021/05/05 01:03:57;;;;;;;1.35;0.50;;;;;;;;;;2097004;28;20036;-68
2021/05/05 01:04:57;;;;;;;1.17;0.63;;;;;;;;;;2088356;28;20555;-66
2021/05/05 01:05:58;;;;;;;0.57;0.57;;;;;;;;;;2088475;28;20022;-66
2021/05/05 01:06:59;;;;;;;0.65;0.50;;;;;;;;;;2082057;28;20029;-66
2021/05/05 01:07:59;;;;;;;0.52;0.40;;;;;;;;;;2089095;28;20430;-66
2021/05/05 01:08:59;;;;;;;0.88;0.57;;;;;;;;;;2096786;28;20442;-66
2021/05/05 01:10:00;;;;;;;0.77;0.40;;;;;;;;;;2096918;28;20043;-66
2021/05/05 01:11:01;;;;;;;0.60;0.50;;;;;;;;;;2089275;28;20515;-66
2021/05/05 01:12:02;;;;;;;0.68;0.40;;;;;;;;;;2088571;28;20032;-66
2021/05/05 01:13:04;;;;;;;0.93;0.43;;;;;;;;;;2088682;28;20522;-66
2021/05/05 01:14:04;;;;;;;0.75;0.55;;;;;;;;;;2088516;28;20036;-65
2021/05/05 01:15:05;;;;;;;1.25;0.57;;;;;;;;;;2088226;28;20116;-66
2021/05/05 01:16:06;;;;;;;0.55;0.40;;;;;;;;;;2096864;28;20052;-66
2021/05/05 01:17:06;;;;;;;0.50;0.45;;;;;;;;;;2089220;28;20024;-66
2021/05/05 01:18:07;;;;;;;0.73;0.45;;;;;;;;;;2088505;28;20052;-66
2021/05/05 01:19:07;;;;;;;1.13;0.60;;;;;;;;;;2088363;28;20068;-66
2021/05/05 01:20:09;;;;;;;0.73;0.40;;;;;;;;;;2096504;28;20040;-66
2021/05/05 01:21:09;;;;;;;0.40;0.30;;;;;;;;;;2083598;28;20025;-66
2021/05/05 01:22:10;;;;;;;0.75;0.50;;;;;;;;;;2088373;28;20146;-66
2021/05/05 01:23:11;;;;;;;0.60;0.38;;;;;;;;;;2096768;28;20036;-66
2021/05/05 01:24:11;;;;;;;1.02;0.50;;;;;;;;;;2089260;28;20055;-66
2021/05/05 01:25:13;;;;;;;1.30;0.60;;;;;;;;;;2089113;28;20377;-66
2021/05/05 01:26:13;;;;;;;0.57;0.38;;;;;;;;;;2089139;28;20033;-66
2021/05/05 01:27:14;;;;;;;1.17;0.40;;;;;;;;;;2087788;28;20029;-66
2021/05/05 01:28:14;;;;;;;0.77;0.38;;;;;;;;;;2087656;28;20037;-66
2021/05/05 01:29:14;;;;;;;0.52;0.30;;;;;;;;;;2088271;28;20445;-66
2021/05/05 01:30:16;;;;;;;0.55;0.47;;;;;;;;;;2087852;28;20025;-66
2021/05/05 01:31:17;;;;;;;0.75;0.50;;;;;;;;;;2088000;28;20037;-66
2021/05/05 01:32:19;;;;;;;1.33;0.57;;;;;;;;;;2087469;28;20029;-66
2021/05/05 01:33:20;;;;;;;0.30;0.30;;;;;;;;;;2088570;28;20040;-66
2021/05/05 01:34:21;;;;;;;0.82;0.50;;;;;;;;;;2096572;28;20064;-66
2021/05/05 01:35:24;;;;;;;0.95;0.50;;;;;;;;;;2088470;28;20025;-66
2021/05/05 01:36:27;;;;;;;0.70;0.40;;;;;;;;;;2088400;28;20404;-66
2021/05/05 01:37:28;;;;;;;0.88;0.38;;;;;;;;;;2088911;28;20559;-66
2021/05/05 01:38:28;;;;;;;0.73;0.40;;;;;;;;;;2088964;28;20038;-66
2021/05/05 01:39:28;;;;;;;0.30;0.30;;;;;;;;;;2089039;28;20041;-66
2021/05/05 01:40:30;;;;;;;0.70;0.40;;;;;;;;;;2088947;28;20112;-66
2021/05/05 01:41:32;;;;;;;0.75;0.50;;;;;;;;;;2089103;28;20084;-66
2021/05/05 01:42:32;;;;;;;0.75;0.40;;;;;;;;;;2089122;28;20116;-66
2021/05/05 01:43:34;;;;;;;2.47;0.77;;;;;;;;;;2089066;28;20400;-66
2021/05/05 01:44:39;;;;;;;0.68;0.50;;;;;;;;;;2088727;28;20052;-66
2021/05/05 01:45:42;;;;;;;0.60;0.40;;;;;;;;;;2089115;28;20040;-66
2021/05/05 01:46:46;;;;;;;0.43;0.20;;;;;;;;;;2096085;28;20043;-66
2021/05/05 01:47:53;;;;;;;0.73;0.40;;;;;;;;;;2095601;28;20518;-65
2021/05/05 01:48:53;;;;;;;2.00;0.45;;;;;;;;;;2088784;28;20047;-69
2021/05/05 01:49:55;;;;;;;1.95;0.40;;;;;;;;;;2088113;28;20035;-66
2021/05/05 01:50:57;;;;;;;3.35;0.50;;;;;;;;;;2088172;28;20031;-66
2021/05/05 01:52:01;;;;;;;0.95;0.50;;;;;;;;;;2088160;28;20087;-65
2021/05/05 01:53:01;;;;;;;0.85;0.40;;;;;;;;;;2096483;28;20033;-65
2021/05/05 01:54:02;;;;;;;2.92;0.38;;;;;;;;;;2096622;28;20063;-66
2021/05/05 01:55:04;;;;;;;0.68;0.40;;;;;;;;;;2088436;28;20474;-65
2021/05/05 01:56:04;;;;;;;0.85;0.60;;;;;;;;;;2088348;28;20492;-65
2021/05/05 01:57:23;;;;;;;1.73;0.60;;;;;;;;;;2089025;28;20021;-65
2021/05/05 01:58:28;;;;;;;1.42;0.50;;;;;;;;;;2089011;28;20681;-65
2021/05/05 01:59:33;;;;;;;3.10;0.47;;;;;;;;;;2088695;28;20403;-65
2021/05/05 02:00:35;;;;;;;0.98;0.32;;;;;;;;;;2089005;28;20033;-65
2021/05/05 02:01:41;;;;;;;0.38;0.30;;;;;;;;;;2096599;28;20043;-65
2021/05/05 02:02:43;;;;;;;0.52;0.43;;;;;;;;;;2096645;28;20047;-65
2021/05/05 02:03:45;;;;;;;1.45;0.40;;;;;;;;;;2088238;28;20063;-65
2021/05/05 02:04:55;;;;;;;0.85;0.40;;;;;;;;;;2081261;28;20068;-65
2021/05/05 02:06:04;;;;;;;0.40;0.40;;;;;;;;;;2089426;28;20043;-66
2021/05/05 02:07:23;;;;;;;1.00;0.40;;;;;;;;;;2088065;28;20047;-65
2021/05/05 02:08:25;;;;;;;0.90;0.38;;;;;;;;;;2088331;28;20039;-65
2021/05/05 02:09:26;;;;;;;0.95;0.40;;;;;;;;;;2088030;28;20040;-65
2021/05/05 02:10:27;;;;;;;0.30;0.30;;;;;;;;;;2088366;28;20039;-65
2021/05/05 02:11:28;;;;;;;0.70;0.50;;;;;;;;;;2096673;28;20024;-65
2021/05/05 02:12:30;;;;;;;1.80;0.57;;;;;;;;;;2088300;28;20044;-65
2021/05/05 02:13:30;;;;;;;0.82;0.50;;;;;;;;;;2088206;28;20128;-65
2021/05/05 02:14:30;;;;;;;0.95;0.40;;;;;;;;;;2096604;28;20120;-65
2021/05/05 02:15:31;;;;;;;2.65;0.45;;;;;;;;;;2088951;28;20047;-65
2021/05/05 02:16:34;;;;;;;1.75;0.40;;;;;;;;;;2089210;28;20033;-65
2021/05/05 02:17:36;;;;;;;0.95;0.40;;;;;;;;;;2083139;28;20103;-65
2021/05/05 02:18:37;;;;;;;0.85;0.40;;;;;;;;;;2090655;28;20036;-64
2021/05/05 02:19:37;;;;;;;0.80;0.35;;;;;;;;;;2089501;28;20545;-65
2021/05/05 02:20:38;;;;;;;2.05;0.40;;;;;;;;;;2089933;28;20491;-65
2021/05/05 02:21:38;;;;;;;2.08;0.40;;;;;;;;;;2090133;28;20545;-65
2021/05/05 02:22:39;;;;;;;0.38;0.38;;;;;;;;;;2098125;28;20031;-65
2021/05/05 02:23:41;;;;;;;0.75;0.25;;;;;;;;;;2089795;28;20052;-65
2021/05/05 02:24:42;;;;;;;0.70;0.47;;;;;;;;;;2089873;28;20044;-65
2021/05/05 02:25:43;;;;;;;0.50;0.40;;;;;;;;;;2089705;28;20171;-65
2021/05/05 02:26:44;;;;;;;0.43;0.40;;;;;;;;;;2090066;28;20041;-65
2021/05/05 02:27:45;;;;;;;0.50;0.40;;;;;;;;;;2090498;28;20040;-65
2021/05/05 02:28:51;;;;;;;0.82;0.30;;;;;;;;;;2089633;28;20028;-65
2021/05/05 02:30:16;;;;;;;0.75;0.50;;;;;;;;;;2084855;28;20033;-65
2021/05/05 02:31:32;;;;;;;0.22;0.22;;;;;;;;;;2089422;28;20487;-65
2021/05/05 02:32:34;;;;;;;1.10;0.30;;;;;;;;;;2090479;28;20037;-65
2021/05/05 02:33:35;;;;;;;0.40;0.32;;;;;;;;;;2089806;28;20036;-65
2021/05/05 02:34:37;;;;;;;0.70;0.50;;;;;;;;;;2089617;28;20036;-65
2021/05/05 02:35:38;;;;;;;0.32;0.32;;;;;;;;;;2083067;28;20029;-65
2021/05/05 02:36:42;;;;;;;0.90;0.40;;;;;;;;;;2089691;28;20025;-65
2021/05/05 02:37:44;;;;;;;2.10;0.40;;;;;;;;;;2090454;28;20029;-65
2021/05/05 02:38:45;;;;;;;0.73;0.30;;;;;;;;;;2090181;28;20041;-65
2021/05/05 02:39:49;;;;;;;0.40;0.32;;;;;;;;;;2089630;28;20515;-65
2021/05/05 02:40:56;;;;;;;0.30;0.30;;;;;;;;;;2090381;28;20057;-65
2021/05/05 02:41:57;;;;;;;0.68;0.40;;;;;;;;;;2097937;28;20032;-65
2021/05/05 02:42:58;;;;;;;1.65;0.40;;;;;;;;;;2089672;28;20544;-64
2021/05/05 02:43:59;;;;;;;0.32;0.30;;;;;;;;;;2089251;28;20033;-66
2021/05/05 02:45:00;;;;;;;0.45;0.25;;;;;;;;;;2089595;28;20412;-65
2021/05/05 02:46:00;;;;;;;1.42;0.47;;;;;;;;;;2089744;28;20052;-65
2021/05/05 02:47:02;;;;;;;1.02;0.50;;;;;;;;;;2097949;28;20037;-65
2021/05/05 02:48:03;;;;;;;0.75;0.30;;;;;;;;;;2097877;28;20086;-65
2021/05/05 02:49:06;;;;;;;1.45;0.30;;;;;;;;;;2097807;28;20032;-65
2021/05/05 02:50:06;;;;;;;0.40;0.40;;;;;;;;;;2089997;28;20061;-65
2021/05/05 02:51:07;;;;;;;2.25;0.47;;;;;;;;;;2090024;28;20056;-65
2021/05/05 02:52:08;;;;;;;1.10;0.60;;;;;;;;;;2090314;28;20033;-64
2021/05/05 02:53:09;;;;;;;0.30;0.30;;;;;;;;;;2090377;28;20484;-65
2021/05/05 02:54:10;;;;;;;0.40;0.40;;;;;;;;;;2089642;28;20868;-65
2021/05/05 02:55:10;;;;;;;0.70;0.32;;;;;;;;;;2089530;28;20411;-65
2021/05/05 02:56:12;;;;;;;0.40;0.30;;;;;;;;;;2090239;28;20029;-64
2021/05/05 02:57:12;;;;;;;0.25;0.25;;;;;;;;;;2089532;28;20060;-65
2021/05/05 02:58:13;;;;;;;0.73;0.50;;;;;;;;;;2089774;28;20408;-65
2021/05/05 02:59:13;;;;;;;0.85;0.40;;;;;;;;;;2089930;28;20033;-65
2021/05/05 03:00:14;;;;;;;0.20;0.20;;;;;;;;;;2090168;28;20103;-65
2021/05/05 03:01:14;;;;;;;0.30;0.30;;;;;;;;;;2090079;28;20433;-65
2021/05/05 03:02:14;;;;;;;0.90;0.50;;;;;;;;;;2089540;28;20037;-65
2021/05/05 03:03:15;;;;;;;0.32;0.20;;;;;;;;;;2089568;28;20024;-65
2021/05/05 03:04:15;;;;;;;0.82;0.30;;;;;;;;;;2090053;28;20025;-65
2021/05/05 03:05:15;;;;;;;0.77;0.40;;;;;;;;;;2090078;28;20120;-65
2021/05/05 03:06:16;;;;;;;0.50;0.38;;;;;;;;;;2090088;28;20099;-65
2021/05/05 03:07:16;;;;;;;0.77;0.40;;;;;;;;;;2090115;28;20630;-66
2021/05/05 03:08:18;;;;;;;0.38;0.30;;;;;;;;;;2090267;28;20044;-66
2021/05/05 03:09:24;;;;;;;0.85;0.40;;;;;;;;;;2090229;28;20029;-66
2021/05/05 03:10:24;;;;;;;0.65;0.40;;;;;;;;;;2090035;28;20367;-67
2021/05/05 03:11:25;;;;;;;1.48;0.40;;;;;;;;;;2090073;28;20033;-66
2021/05/05 03:12:25;;;;;;;0.55;0.40;;;;;;;;;;2090104;28;20119;-66
2021/05/05 03:13:25;;;;;;;0.68;0.38;;;;;;;;;;2090055;28;20025;-65
2021/05/05 03:14:27;;;;;;;0.45;0.40;;;;;;;;;;2089461;28;20535;-65
2021/05/05 03:15:27;;;;;;;0.40;0.30;;;;;;;;;;2089524;28;20028;-66
2021/05/05 03:16:27;;;;;;;0.35;0.35;;;;;;;;;;2090177;28;20033;-66
2021/05/05 03:17:28;;;;;;;1.75;0.47;;;;;;;;;;2089973;28;20045;-67
2021/05/05 03:18:28;;;;;;;0.50;0.40;;;;;;;;;;2090147;28;20033;-66
2021/05/05 03:19:28;;;;;;;1.55;0.50;;;;;;;;;;2089820;28;20037;-66
2021/05/05 03:20:29;;;;;;;3.95;0.60;;;;;;;;;;2089979;28;20061;-67
2021/05/05 03:21:29;;;;;;;17.90;0.75;;;;;;;;;;2089845;28;20036;-65
2021/05/05 03:22:30;;;;;;;3.40;0.95;;;;;;;;;;2090152;28;20523;-65
2021/05/05 03:23:30;;;;;;;0.65;0.43;;;;;;;;;;2090048;28;20534;-65
2021/05/05 03:24:30;;;;;;;2.28;0.55;;;;;;;;;;2089390;28;20025;-65
2021/05/05 03:25:31;;;;;;;2.00;0.43;;;;;;;;;;2089400;28;20039;-65
2021/05/05 03:26:31;;;;;;;3.90;0.32;;;;;;;;;;2089977;28;20079;-66
2021/05/05 03:27:31;;;;;;;4.07;0.45;;;;;;;;;;2090034;28;20104;-69
2021/05/05 03:28:32;;;;;;;5.93;0.63;;;;;;;;;;2089079;28;20029;-65
2021/05/05 03:29:32;;;;;;;1.45;0.50;;;;;;;;;;2089263;28;20033;-66
2021/05/05 03:30:32;;;;;;;1.67;0.50;;;;;;;;;;2089761;28;20127;-68
2021/05/05 03:31:34;;;;;;;3.85;0.40;;;;;;;;;;2089846;28;20116;-67
2021/05/05 03:32:35;;;;;;;2.20;0.52;;;;;;;;;;2089866;28;20052;-68
2021/05/05 03:33:35;;;;;;;4.70;0.50;;;;;;;;;;2089916;28;20037;-67
2021/05/05 03:34:35;;;;;;;4.18;0.50;;;;;;;;;;2089631;28;20457;-67
2021/05/05 03:35:36;;;;;;;3.00;0.43;;;;;;;;;;2089802;28;20042;-67
2021/05/05 03:36:36;;;;;;;1.17;0.50;;;;;;;;;;2089977;28;20075;-68
2021/05/05 03:37:37;;;;;;;2.42;0.35;;;;;;;;;;2090077;28;20033;-68
2021/05/05 03:38:37;;;;;;;0.82;0.40;;;;;;;;;;2089371;28;20512;-69
2021/05/05 03:39:37;;;;;;;1.85;0.45;;;;;;;;;;2089833;28;20442;-69
2021/05/05 03:40:37;;;;;;;1.85;0.40;;;;;;;;;;2089893;28;20029;-69
2021/05/05 03:41:38;;;;;;;0.85;0.40;;;;;;;;;;2088930;28;20043;-68
2021/05/05 03:42:38;;;;;;;0.98;0.40;;;;;;;;;;2089704;28;20029;-69
2021/05/05 03:43:38;;;;;;;0.95;0.50;;;;;;;;;;2089126;28;20056;-68
2021/05/05 03:44:39;;;;;;;1.10;0.43;;;;;;;;;;2089974;28;20419;-70
2021/05/05 03:45:39;;;;;;;0.68;0.50;;;;;;;;;;2089866;28;20029;-69
2021/05/05 03:46:40;;;;;;;1.77;0.50;;;;;;;;;;2090024;28;20036;-69
2021/05/05 03:47:40;;;;;;;1.00;0.40;;;;;;;;;;2089843;28;20033;-69
2021/05/05 03:48:40;;;;;;;0.60;0.20;;;;;;;;;;2089227;28;20060;-69
2021/05/05 03:49:41;;;;;;;1.58;0.52;;;;;;;;;;2085369;28;20108;-70
2021/05/05 03:50:42;;;;;;;1.55;0.32;;;;;;;;;;2086664;28;20048;-69
2021/05/05 03:51:42;;;;;;;0.70;0.40;;;;;;;;;;2089767;28;20395;-69
2021/05/05 03:52:42;;;;;;;0.75;0.43;;;;;;;;;;2089906;28;20043;-69
2021/05/05 03:53:43;;;;;;;1.75;0.47;;;;;;;;;;2089844;28;20044;-69
2021/05/05 03:54:43;;;;;;;1.10;0.30;;;;;;;;;;2089973;28;20033;-69
2021/05/05 03:55:44;;;;;;;0.22;0.20;;;;;;;;;;2089812;28;20036;-69
2021/05/05 03:56:45;;;;;;;2.65;0.47;;;;;;;;;;2089775;28;20404;-69
2021/05/05 03:57:45;;;;;;;0.95;0.47;;;;;;;;;;2089507;28;20383;-69
2021/05/05 03:58:45;;;;;;;0.73;0.40;;;;;;;;;;2089877;28;20033;-69
2021/05/05 03:59:46;;;;;;;1.00;0.45;;;;;;;;;;2089592;28;20040;-69
2021/05/05 04:00:46;;;;;;;2.90;0.40;;;;;;;;;;2089825;28;20025;-68
2021/05/05 04:01:46;;;;;;;1.35;0.30;;;;;;;;;;2089654;28;20033;-69
2021/05/05 04:02:47;;;;;;;1.15;0.35;;;;;;;;;;2089920;28;20189;-69
2021/05/05 04:03:47;;;;;;;0.80;0.45;;;;;;;;;;2089673;28;20087;-68
2021/05/05 04:04:47;;;;;;;1.10;0.35;;;;;;;;;;2089626;28;20479;-68
2021/05/05 04:05:48;;;;;;;0.65;0.40;;;;;;;;;;2089445;28;20056;-68
2021/05/05 04:06:48;;;;;;;2.20;0.50;;;;;;;;;;2089893;28;20476;-68
2021/05/05 04:07:49;;;;;;;0.98;0.43;;;;;;;;;;2089748;28;20498;-69
2021/05/05 04:08:50;;;;;;;0.80;0.30;;;;;;;;;;2089667;28;20476;-70
2021/05/05 04:09:50;;;;;;;1.50;0.47;;;;;;;;;;2089708;28;20036;-68
2021/05/05 04:10:51;;;;;;;0.40;0.30;;;;;;;;;;2089776;28;20023;-68
2021/05/05 04:11:51;;;;;;;0.63;0.32;;;;;;;;;;2089580;28;20033;-67
2021/05/05 04:12:52;;;;;;;0.47;0.35;;;;;;;;;;2089540;28;20021;-67
2021/05/05 04:13:52;;;;;;;0.47;0.30;;;;;;;;;;2089585;28;20388;-67
2021/05/05 04:14:52;;;;;;;2.15;0.40;;;;;;;;;;2089009;28;20037;-69
2021/05/05 04:15:53;;;;;;;0.65;0.38;;;;;;;;;;2089071;28;20547;-69
2021/05/05 04:16:53;;;;;;;0.38;0.38;;;;;;;;;;2089716;28;20037;-70
2021/05/05 04:17:53;;;;;;;0.40;0.40;;;;;;;;;;2089627;28;20029;-67
2021/05/05 04:18:54;;;;;;;0.35;0.20;;;;;;;;;;2089614;28;20017;-70
2021/05/05 04:19:55;;;;;;;1.70;0.35;;;;;;;;;;2089277;28;20045;-70
2021/05/05 04:20:58;;;;;;;0.47;0.28;;;;;;;;;;2089679;28;20044;-68
2021/05/05 04:22:00;;;;;;;0.60;0.38;;;;;;;;;;2089575;28;20025;-68
2021/05/05 04:23:00;;;;;;;0.57;0.28;;;;;;;;;;2089579;28;20029;-70
2021/05/05 04:24:01;;;;;;;0.95;0.40;;;;;;;;;;2089643;28;20495;-70
2021/05/05 04:25:01;;;;;;;0.52;0.30;;;;;;;;;;2089725;28;20037;-69
2021/05/05 04:26:02;;;;;;;0.30;0.30;;;;;;;;;;2088838;28;20025;-70
2021/05/05 04:27:03;;;;;;;0.30;0.30;;;;;;;;;;2088987;28;20041;-70
2021/05/05 04:28:03;;;;;;;0.30;0.30;;;;;;;;;;2089274;28;21313;-70
2021/05/05 04:29:04;;;;;;;0.43;0.17;;;;;;;;;;2089554;28;20048;-69
2021/05/05 04:30:05;;;;;;;0.80;0.40;;;;;;;;;;2089559;28;20036;-67
2021/05/05 04:31:06;;;;;;;0.65;0.35;;;;;;;;;;2089556;28;20017;-70
2021/05/05 04:32:06;;;;;;;0.40;0.38;;;;;;;;;;2089402;28;20025;-70
2021/05/05 04:33:07;;;;;;;0.38;0.30;;;;;;;;;;2089461;28;20047;-70
2021/05/05 04:34:07;;;;;;;0.60;0.32;;;;;;;;;;2089560;28;20041;-70
2021/05/05 04:35:08;;;;;;;0.50;0.28;;;;;;;;;;2089168;28;20039;-69
2021/05/05 04:36:08;;;;;;;0.68;0.35;;;;;;;;;;2089516;28;20028;-70
2021/05/05 04:37:09;;;;;;;0.68;0.30;;;;;;;;;;2082930;28;20381;-70
2021/05/05 04:38:09;;;;;;;0.63;0.40;;;;;;;;;;2089446;28;20565;-70
2021/05/05 04:39:10;;;;;;;0.30;0.30;;;;;;;;;;2089346;28;20525;-70
2021/05/05 04:40:10;;;;;;;0.43;0.40;;;;;;;;;;2089147;28;20510;-70
2021/05/05 04:41:11;;;;;;;0.73;0.28;;;;;;;;;;2089179;28;20028;-70
2021/05/05 04:42:11;;;;;;;0.47;0.20;;;;;;;;;;2089131;28;20040;-68
2021/05/05 04:43:11;;;;;;;0.60;0.30;;;;;;;;;;2089340;28;20079;-69
2021/05/05 04:44:12;;;;;;;0.60;0.32;;;;;;;;;;2089521;28;20047;-69
2021/05/05 04:45:12;;;;;;;1.55;0.30;;;;;;;;;;2089305;28;20112;-70
2021/05/05 04:46:13;;;;;;;0.65;0.50;;;;;;;;;;2089606;28;20051;-69
2021/05/05 04:47:13;;;;;;;0.52;0.30;;;;;;;;;;2089397;28;20541;-70
2021/05/05 04:48:13;;;;;;;0.20;0.20;;;;;;;;;;2089481;28;20029;-70
2021/05/05 04:49:14;;;;;;;1.25;0.40;;;;;;;;;;2089405;28;20377;-69
2021/05/05 04:50:14;;;;;;;0.43;0.28;;;;;;;;;;2088968;28;20116;-69
2021/05/05 04:51:14;;;;;;;0.77;0.40;;;;;;;;;;2088878;28;20040;-70
2021/05/05 04:52:15;;;;;;;0.20;0.20;;;;;;;;;;2088823;28;20472;-69
2021/05/05 04:53:15;;;;;;;0.50;0.30;;;;;;;;;;2089461;28;20476;-70
2021/05/05 04:54:15;;;;;;;0.65;0.30;;;;;;;;;;2089327;28;20060;-69
2021/05/05 04:55:16;;;;;;;0.30;0.30;;;;;;;;;;2089431;28;20020;-70
2021/05/05 04:56:16;;;;;;;0.20;0.20;;;;;;;;;;2089405;28;20029;-68
2021/05/05 04:57:17;;;;;;;0.25;0.25;;;;;;;;;;2089153;28;20056;-70
2021/05/05 04:58:17;;;;;;;0.75;0.43;;;;;;;;;;2089322;28;20476;-67
2021/05/05 04:59:18;;;;;;;1.67;0.30;;;;;;;;;;2089282;28;20013;-70
2021/05/05 05:00:18;;;;;;;0.57;0.38;;;;;;;;;;2089332;28;20043;-69
2021/05/05 05:01:19;;;;;;;0.40;0.25;;;;;;;;;;2089212;28;20039;-70
2021/05/05 05:02:19;;;;;;;0.30;0.20;;;;;;;;;;2089283;28;20021;-70
2021/05/05 05:03:19;;;;;;;0.68;0.30;;;;;;;;;;2088660;28;20032;-69
2021/05/05 05:04:20;;;;;;;0.68;0.38;;;;;;;;;;2084949;28;20459;-69
2021/05/05 05:05:22;;;;;;;0.50;0.30;;;;;;;;;;2088729;28;20029;-69
2021/05/05 05:06:22;;;;;;;0.60;0.30;;;;;;;;;;2089244;28;20075;-70
2021/05/05 05:07:23;;;;;;;0.35;0.20;;;;;;;;;;2089237;28;20538;-69
2021/05/05 05:08:23;;;;;;;0.20;0.20;;;;;;;;;;2089422;28;20044;-69
2021/05/05 05:09:23;;;;;;;0.40;0.22;;;;;;;;;;2089324;28;20464;-69
2021/05/05 05:10:24;;;;;;;0.20;0.20;;;;;;;;;;2089290;28;20377;-69
2021/05/05 05:11:24;;;;;;;0.88;0.30;;;;;;;;;;2089263;28;20060;-70
2021/05/05 05:12:25;;;;;;;0.35;0.30;;;;;;;;;;2088730;28;20056;-68
2021/05/05 05:13:25;;;;;;;1.92;0.25;;;;;;;;;;2088543;28;20492;-62
2021/05/05 05:14:25;;;;;;;8.93;0.55;;;;;;;;;;2088638;28;20033;-67
2021/05/05 05:15:26;;;;;;;0.63;0.30;;;;;;;;;;2089249;28;20032;-70
2021/05/05 05:16:27;;;;;;;0.57;0.30;;;;;;;;;;2089159;28;20025;-71
2021/05/05 05:17:27;;;;;;;1.30;0.35;;;;;;;;;;2089283;28;20029;-67
2021/05/05 05:18:27;;;;;;;0.80;0.20;;;;;;;;;;2089315;28;20064;-67
2021/05/05 05:19:27;;;;;;;0.60;0.25;;;;;;;;;;2088727;28;20031;-67
2021/05/05 05:20:28;;;;;;;0.40;0.30;;;;;;;;;;2089272;28;20025;-67
2021/05/05 05:21:28;;;;;;;0.30;0.20;;;;;;;;;;2088371;28;20079;-67
2021/05/05 05:22:28;;;;;;;0.35;0.30;;;;;;;;;;2088683;28;20124;-67
2021/05/05 05:23:29;;;;;;;0.20;0.20;;;;;;;;;;2089129;28;20083;-67
2021/05/05 05:24:29;;;;;;;1.00;0.40;;;;;;;;;;2088542;28;20029;-70
2021/05/05 05:25:30;;;;;;;1.00;0.40;;;;;;;;;;2088471;28;20399;-69
2021/05/05 05:26:30;;;;;;;0.50;0.20;;;;;;;;;;2088945;28;20028;-70
2021/05/05 05:27:30;;;;;;;0.85;0.32;;;;;;;;;;2089181;28;20078;-70
2021/05/05 05:28:30;;;;;;;1.23;0.30;;;;;;;;;;2089195;28;20369;-70
2021/05/05 05:29:31;;;;;;;0.55;0.28;;;;;;;;;;2089096;28;20102;-70
2021/05/05 05:30:31;;;;;;;3.63;0.40;;;;;;;;;;2089225;28;20045;-70
2021/05/05 05:31:32;;;;;;;0.98;0.28;;;;;;;;;;2089139;28;20029;-71
2021/05/05 05:32:32;;;;;;;3.08;0.40;;;;;;;;;;2089199;28;20045;-70
2021/05/05 05:33:33;;;;;;;1.80;0.38;;;;;;;;;;2089018;28;20036;-70
2021/05/05 05:34:33;;;;;;;2.05;0.30;;;;;;;;;;2088663;28;20111;-70
2021/05/05 05:35:33;;;;;;;0.60;0.20;;;;;;;;;;2089097;28;20043;-69
2021/05/05 05:36:34;;;;;;;1.70;0.50;;;;;;;;;;2089208;28;20037;-70
2021/05/05 05:37:34;;;;;;;0.65;0.30;;;;;;;;;;2088418;28;20025;-69
2021/05/05 05:38:34;;;;;;;0.20;0.20;;;;;;;;;;2088221;28;20119;-69
2021/05/05 05:39:35;;;;;;;3.25;0.20;;;;;;;;;;2089132;28;20043;-70
2021/05/05 05:40:35;;;;;;;0.43;0.22;;;;;;;;;;2089060;28;20479;-70
2021/05/05 05:41:36;;;;;;;1.08;0.30;;;;;;;;;;2088894;28;20079;-69
2021/05/05 05:42:36;;;;;;;1.45;0.30;;;;;;;;;;2089146;28;20041;-70
2021/05/05 05:43:36;;;;;;;1.17;0.30;;;;;;;;;;2088902;28;20067;-70
2021/05/05 05:44:37;;;;;;;0.52;0.30;;;;;;;;;;2096724;28;20055;-70
2021/05/05 05:45:37;;;;;;;0.75;0.30;;;;;;;;;;2095844;28;20036;-69
2021/05/05 05:46:38;;;;;;;0.75;0.40;;;;;;;;;;2089205;28;20040;-69
2021/05/05 05:47:39;;;;;;;0.70;0.30;;;;;;;;;;2088130;28;20606;-68
2021/05/05 05:48:39;;;;;;;0.40;0.20;;;;;;;;;;2088752;28;20078;-69
2021/05/05 05:49:39;;;;;;;2.78;0.30;;;;;;;;;;2088862;28;20028;-70
2021/05/05 05:50:40;;;;;;;1.75;0.50;;;;;;;;;;2096599;28;20705;-69
2021/05/05 05:51:40;;;;;;;0.68;0.20;;;;;;;;;;2096765;28;20076;-70
2021/05/05 05:52:41;;;;;;;0.73;0.32;;;;;;;;;;2089807;28;20471;-68
2021/05/05 05:53:41;;;;;;;0.45;0.28;;;;;;;;;;2089973;28;20028;-70
2021/05/05 05:54:42;;;;;;;0.30;0.20;;;;;;;;;;2089152;28;20116;-70
2021/05/05 05:55:44;;;;;;;0.47;0.30;;;;;;;;;;2090633;28;20036;-70
2021/05/05 05:56:44;;;;;;;2.58;0.47;;;;;;;;;;2090277;28;20498;-69
2021/05/05 05:57:45;;;;;;;0.63;0.30;;;;;;;;;;2090724;28;20044;-70
2021/05/05 05:58:45;;;;;;;1.38;0.30;;;;;;;;;;2090602;28;20035;-69
2021/05/05 05:59:45;;;;;;;0.65;0.40;;;;;;;;;;2090721;28;20116;-70
2021/05/05 06:00:46;;;;;;;1.45;0.35;;;;;;;;;;2090585;28;20525;-69
2021/05/05 06:01:46;;;;;;;0.82;0.30;;;;;;;;;;2090017;28;20025;-68
2021/05/05 06:02:46;;;;;;;1.42;0.40;;;;;;;;;;2090144;28;20048;-69
2021/05/05 06:03:47;;;;;;;0.63;0.30;;;;;;;;;;2090312;28;20483;-69
2021/05/05 06:04:47;;;;;;;1.33;0.40;;;;;;;;;;2090555;28;20039;-69
2021/05/05 06:05:48;;;;;;;0.38;0.22;;;;;;;;;;2090217;28;20487;-70